createdAt,value
2017-05-17T00:00:04.997Z,1017.4
2017-05-17T00:10:04.995Z,1017.29
2017-05-17T00:20:05.006Z,1017.22
2017-05-17T00:30:05.003Z,1017.12
2017-05-17T00:40:04.998Z,1017.03
2017-05-17T00:50:05.006Z,1016.99
2017-05-17T01:00:04.999Z,1016.9
2017-05-17T01:10:04.996Z,1016.85
2017-05-17T01:20:05.003Z,1016.73
2017-05-17T01:30:04.999Z,1016.68
2017-05-17T01:40:05.009Z,1016.61
2017-05-17T01:50:04.992Z,1016.63
2017-05-17T02:00:04.999Z,1016.49
2017-05-17T02:10:05.007Z,1016.47
2017-05-17T02:20:05.000Z,1016.39
2017-05-17T02:30:05.004Z,1016.29
2017-05-17T02:40:04.997Z,1016.3
2017-05-17T02:50:04.999Z,1016.24
2017-05-17T03:00:05.006Z,1016.17
2017-05-17T03:10:05.004Z,1016.12
2017-05-17T03:20:05.007Z,1016.06
2017-05-17T03:30:05.013Z,1015.93
2017-05-17T03:40:05.007Z,1015.95
2017-05-17T03:50:05.002Z,1016
2017-05-17T04:00:05.003Z,1015.92
2017-05-17T04:10:05.009Z,1015.91
2017-05-17T04:20:05.000Z,1015.87
2017-05-17T04:30:05.005Z,1015.9
2017-05-17T04:40:05.001Z,1015.85
2017-05-17T04:50:05.029Z,1015.84
2017-05-17T05:00:05.071Z,1015.89
2017-05-17T05:10:05.005Z,1015.81
2017-05-17T05:20:05.003Z,1015.64
2017-05-17T05:30:05.270Z,1015.7
2017-05-17T05:40:05.009Z,1015.6
2017-05-17T05:50:05.008Z,1015.53
2017-05-17T06:00:05.026Z,1015.51
2017-05-17T06:10:05.068Z,1015.49
2017-05-17T06:20:05.054Z,1015.48
2017-05-17T06:30:05.020Z,1015.42
2017-05-17T06:40:05.024Z,1015.38
2017-05-17T06:50:05.026Z,1015.34
2017-05-17T07:00:05.018Z,1015.3
2017-05-17T07:10:05.040Z,1015.31
2017-05-17T07:20:05.034Z,1015.25
2017-05-17T07:30:05.034Z,1015.22
2017-05-17T07:40:05.040Z,1015
2017-05-17T07:50:05.040Z,1014.74
2017-05-17T08:00:05.045Z,1014.76
2017-05-17T08:10:05.055Z,1014.66
2017-05-17T08:20:05.055Z,1014.6
2017-05-17T08:30:05.056Z,1014.41
2017-05-17T08:40:05.072Z,1014.33
2017-05-17T08:50:05.055Z,1014.03
2017-05-17T09:00:05.068Z,1013.92
2017-05-17T09:10:05.077Z,1013.84
2017-05-17T09:20:05.083Z,1013.79
2017-05-17T09:30:05.086Z,1013.69
2017-05-17T09:40:05.073Z,1013.47
2017-05-17T09:50:05.079Z,1013.27
2017-05-17T10:00:05.076Z,1013.1
2017-05-17T10:10:05.081Z,1013.01
2017-05-17T10:20:05.072Z,1012.75
2017-05-17T10:30:05.086Z,1012.58
2017-05-17T10:40:05.079Z,1012.49
2017-05-17T10:50:05.088Z,1012.29
2017-05-17T11:00:05.086Z,1012.07
2017-05-17T11:10:05.089Z,1011.85
2017-05-17T11:20:05.102Z,1011.71
2017-05-17T11:30:05.108Z,1011.61
2017-05-17T11:40:05.105Z,1011.54
2017-05-17T11:50:05.102Z,1011.42
2017-05-17T12:00:05.103Z,1011.3
2017-05-17T12:10:05.115Z,1011.13
2017-05-17T12:20:05.111Z,1011.06
2017-05-17T12:30:05.114Z,1010.82
2017-05-17T12:40:05.112Z,1010.7
2017-05-17T12:50:05.127Z,1010.49
2017-05-17T13:00:05.117Z,1010.31
2017-05-17T13:10:05.130Z,1010.15
2017-05-17T13:20:05.121Z,1009.94
2017-05-17T13:30:05.131Z,1009.81
2017-05-17T13:40:05.140Z,1009.7
2017-05-17T13:50:05.130Z,1009.52
2017-05-17T14:00:05.137Z,1009.24
2017-05-17T14:10:05.140Z,1009.2
2017-05-17T14:20:05.147Z,1009.01
2017-05-17T14:30:05.138Z,1008.66
2017-05-17T14:40:05.146Z,1008.51
2017-05-17T14:50:05.147Z,1008.3
2017-05-17T15:00:05.152Z,1008.09
2017-05-17T15:10:05.182Z,1007.97
2017-05-17T15:20:05.156Z,1007.83
2017-05-17T15:30:05.175Z,1007.65
2017-05-17T15:40:05.165Z,1007.52
2017-05-17T15:50:05.153Z,1007.42
2017-05-17T16:00:05.156Z,1007.22
2017-05-17T16:10:05.939Z,1007.03
2017-05-17T16:20:05.163Z,1006.88
2017-05-17T16:30:05.165Z,1006.73
2017-05-17T16:40:05.184Z,1006.57
2017-05-17T16:50:05.166Z,1006.45
2017-05-17T17:00:05.200Z,1006.3
2017-05-17T17:10:05.213Z,1006.26
2017-05-17T17:20:05.183Z,1006.15
2017-05-17T17:30:05.622Z,1006.02
2017-05-17T17:40:05.198Z,1005.96
2017-05-17T17:50:05.235Z,1005.9
2017-05-17T18:00:05.189Z,1005.73
2017-05-17T18:10:05.239Z,1005.71
2017-05-17T18:20:05.339Z,1005.56
2017-05-17T18:30:05.269Z,1005.52
2017-05-17T18:40:05.204Z,1005.48
2017-05-17T18:50:05.201Z,1005.51
2017-05-17T19:00:05.208Z,1005.45
2017-05-17T19:10:05.194Z,1005.45
2017-05-17T19:20:05.201Z,1005.39
2017-05-17T19:30:05.223Z,1005.32
2017-05-17T19:40:05.216Z,1005.22
2017-05-17T19:50:05.226Z,1005.19
2017-05-17T20:00:05.201Z,1005.21
2017-05-17T20:10:05.254Z,1005.17
2017-05-17T20:20:05.216Z,1005.07
2017-05-17T20:30:05.237Z,1005.07
2017-05-17T20:40:05.211Z,1004.98
2017-05-17T20:50:05.268Z,1004.92
2017-05-17T21:00:05.227Z,1004.83
2017-05-17T21:10:05.762Z,1004.73
2017-05-17T21:20:05.251Z,1004.64
2017-05-17T21:30:05.346Z,1004.58
2017-05-17T21:40:05.294Z,1004.49
2017-05-17T21:50:05.248Z,1004.33
2017-05-17T22:00:05.226Z,1004.31
2017-05-17T22:10:05.261Z,1004.22
2017-05-17T22:20:05.332Z,1004.08
2017-05-17T22:30:05.349Z,1004.04
2017-05-17T22:40:05.261Z,1003.96
2017-05-17T22:50:05.234Z,1003.89
2017-05-17T23:00:05.278Z,1003.86
2017-05-17T23:10:05.337Z,1003.81
2017-05-17T23:20:05.312Z,1003.7
2017-05-17T23:30:05.261Z,1003.57
2017-05-17T23:40:05.331Z,1003.46
2017-05-17T23:50:05.284Z,1003.33
